Cupar, Canada
Current Conditions -  °F | °C
As of 3:00 AM on Friday 19 Dec 2014 (Local Time) from CYQR Reporting Station
Moderate Fog Moderate Fog  
Wind Chill: 23°   Ceiling: 200
Heat Index: 23°   Visibility: 0.25mi
Dew Point: 23°   Wind: 3mph
Humidity: 100%   Direction: 270°W
Pressure: 29.9"   Gusts: NA
Location:  50.95°N, 104.2°W
Report Text: CYQR 190900Z 27003KT 1/4SM R13/3000FT/D FZFG VV002 M05/M05 A2990 RMK FG8 SLP161
Loading
Personal Weather Stations






























Interactive Weather Map New forecast layout! Learn more

10-Day Weather Forecast

Advertisements
Track Severe Weather on mobile